Main page
METAR-TAF:

METAR-TAF

Airports :

Larnaca International Airport

Larnaca, Cyprus

latitude: 34-53N, longitude: 033-38E, elevation: 2 m

Current weather observation

The report was made 21 minutes ago, at 21:00 UTC
Wind 10 kt from the North
Temperature 18°C
Humidity 83%
Pressure 1013 hPa
Visibility 10 km or more
Few clouds at a height of 3000 ft, Cumulonimbus.
Scattered clouds at a height of 3500 ft

METAR: LCLK 132100Z 01010KT 9999 FEW030CB SCT035 18/15 Q1013 NOSIG

Time: 23:21 (21:21 UTC)

Forecast

The report was made 3 hours and 51 minutes ago, at 17:30 UTC
Forecast valid from 13 at 18 UTC to 14 at 18 UTC
Wind 9 kt from the North/Northwest
Visibility 10 km or more
Few clouds at a height of 2500 ft
Becoming
from 14 at 03 UTC to 14 at 06 UTC
Wind 15 kt from the North/Northeast

TAF: LCLK 131730Z 1318/1418 33009KT 9999 FEW025 BECMG 1403/1406 03015KT

Weather observations and forecasts of more than 4000 airports (METAR and TAF reports).

The available stations are represented by yellow and red dots on the map.

Hover mouse over dot to see the name of the station.

Then click to see weather observations and forecasts.

To change the map : click on the green buttons with a black cross to zoom in, on the green button with a dash to zoom out, or on the green arrows for adjacent maps.


METAR-TAF: